Time;durP1;ratioP1;P1;durP2;ratioP2;P2;SDS_P1;SDS_P2;PMS_P1;PMS_P2;Temp;Humidity;BMP_temperature;BMP_pressure;BME280_temperature;BME280_humidity;BME280_pressure;Samples;Min_cycle;Max_cycle;Signal;HPM_P1;HPM_P2
2023/06/02 00:01:03;;;;;;;3.53;2.15;;;18.00;47.60;;;;;;5036656;28;20096;-89
2023/06/02 00:03:31;;;;;;;6.05;2.42;;;18.00;47.80;;;;;;5035967;28;20033;-89
2023/06/02 00:05:59;;;;;;;4.88;2.58;;;18.00;48.00;;;;;;5035850;28;20030;-90
2023/06/02 00:08:26;;;;;;;5.68;2.40;;;18.00;48.10;;;;;;5036171;28;20427;-89
2023/06/02 00:10:52;;;;;;;5.32;2.22;;;17.90;48.20;;;;;;5021706;28;20044;-89
2023/06/02 00:13:22;;;;;;;5.93;2.58;;;17.90;48.10;;;;;;5021421;28;20321;-90
2023/06/02 00:15:48;;;;;;;4.35;2.90;;;17.90;48.60;;;;;;5025012;28;20065;-89
2023/06/02 00:18:14;;;;;;;8.68;2.65;;;17.80;48.50;;;;;;5035260;28;20033;-91
2023/06/02 00:20:41;;;;;;;4.18;2.40;;;17.80;48.50;;;;;;5031919;28;20134;-90
2023/06/02 00:23:10;;;;;;;4.72;2.40;;;17.70;48.60;;;;;;5034695;28;20040;-90
2023/06/02 00:25:38;;;;;;;3.95;2.40;;;17.70;49.40;;;;;;5024534;28;20795;-90
2023/06/02 00:28:04;;;;;;;6.05;2.72;;;17.60;48.70;;;;;;5031509;28;20037;-89
2023/06/02 00:30:30;;;;;;;5.25;2.40;;;17.60;48.80;;;;;;5036323;28;20033;-89
2023/06/02 00:32:56;;;;;;;4.82;2.65;;;17.60;48.80;;;;;;5035943;28;20053;-91
2023/06/02 00:35:22;;;;;;;4.68;2.70;;;17.50;49.00;;;;;;5026516;28;20065;-91
2023/06/02 00:37:47;;;;;;;3.15;2.60;;;17.50;49.10;;;;;;5035274;28;20124;-90
2023/06/02 00:40:14;;;;;;;3.80;2.50;;;17.50;49.20;;;;;;5026398;28;20033;-90
2023/06/02 00:42:40;;;;;;;4.25;2.55;;;17.40;49.10;;;;;;5034908;28;20457;-89
2023/06/02 00:45:06;;;;;;;5.95;3.08;;;17.40;49.00;;;;;;5027060;28;20040;-90
2023/06/02 00:47:32;;;;;;;4.85;3.08;;;17.40;49.20;;;;;;5034772;28;20037;-90
2023/06/02 00:49:58;;;;;;;6.15;2.97;;;17.30;48.90;;;;;;5031317;28;20053;-90
2023/06/02 00:52:25;;;;;;;3.38;2.70;;;17.30;48.60;;;;;;5023028;28;20095;-90
2023/06/02 00:54:51;;;;;;;4.68;2.88;;;17.30;48.70;;;;;;5034074;28;20033;-90
2023/06/02 00:57:17;;;;;;;4.30;2.90;;;17.20;49.60;;;;;;5034762;28;20029;-90
2023/06/02 00:59:46;;;;;;;2.85;2.58;;;17.20;48.70;;;;;;5033117;28;20064;-90
2023/06/02 01:02:13;;;;;;;14.70;2.90;;;17.20;49.20;;;;;;5029964;28;20034;-90
2023/06/02 01:04:44;;;;;;;3.90;2.65;;;17.10;49.00;;;;;;5034290;28;20030;-90
2023/06/02 01:07:13;;;;;;;7.95;4.68;;;17.10;49.10;;;;;;5035473;28;20032;-90
2023/06/02 01:09:40;;;;;;;7.80;5.05;;;17.00;48.90;;;;;;5034426;28;20036;-90
2023/06/02 01:12:07;;;;;;;9.05;5.32;;;17.00;48.70;;;;;;5035359;28;20041;-90
2023/06/02 01:14:33;;;;;;;5.22;3.88;;;16.90;48.60;;;;;;5034718;28;20037;-90
2023/06/02 01:16:59;;;;;;;4.47;3.80;;;16.90;48.30;;;;;;5035747;28;20030;-89
2023/06/02 01:19:26;;;;;;;5.82;3.60;;;16.90;48.40;;;;;;5033985;28;20081;-89
2023/06/02 01:22:01;;;;;;;6.63;3.80;;;16.80;48.50;;;;;;5022996;28;20029;-90
2023/06/02 01:24:48;;;;;;;6.47;3.08;;;16.80;49.00;;;;;;5023464;28;20082;-90
2023/06/02 01:27:15;;;;;;;3.60;3.20;;;16.80;49.60;;;;;;5023164;28;20128;-89
2023/06/02 01:29:42;;;;;;;4.05;2.83;;;16.70;48.90;;;;;;5026055;28;20029;-90
2023/06/02 01:32:14;;;;;;;6.55;3.30;;;16.70;49.00;;;;;;5034430;28;20124;-90
2023/06/02 01:35:09;;;;;;;5.20;2.85;;;16.70;49.40;;;;;;5029788;28;20033;-90
2023/06/02 01:37:42;;;;;;;7.15;3.38;;;16.60;49.80;;;;;;5016289;28;20143;-90
2023/06/02 01:40:09;;;;;;;6.78;2.67;;;16.60;49.10;;;;;;5028302;28;20486;-90
2023/06/02 01:42:35;;;;;;;4.50;3.15;;;16.60;49.20;;;;;;5034077;28;20372;-90
2023/06/02 01:45:02;;;;;;;6.30;3.40;;;16.60;49.20;;;;;;5027358;28;20034;-90
2023/06/02 01:47:28;;;;;;;5.32;3.78;;;16.50;49.10;;;;;;5034219;28;20096;-90
2023/06/02 01:49:54;;;;;;;6.93;3.60;;;16.50;49.00;;;;;;5025874;28;20102;-90
2023/06/02 01:52:20;;;;;;;4.32;3.17;;;16.50;49.10;;;;;;5033995;28;20037;-90
2023/06/02 01:54:47;;;;;;;6.95;3.60;;;16.40;49.20;;;;;;5029940;28;20029;-90
2023/06/02 01:57:12;;;;;;;5.25;3.25;;;16.40;49.60;;;;;;5034661;28;20489;-90
2023/06/02 01:59:38;;;;;;;11.13;3.53;;;16.30;49.70;;;;;;5029469;28;20083;-90
2023/06/02 02:02:05;;;;;;;6.85;3.08;;;16.20;49.90;;;;;;5034081;28;20088;-90
2023/06/02 02:04:30;;;;;;;4.82;2.97;;;16.20;49.90;;;;;;5034022;28;20045;-90
2023/06/02 02:06:57;;;;;;;5.68;3.13;;;16.20;50.10;;;;;;5033970;28;20030;-90
2023/06/02 02:09:22;;;;;;;6.25;3.33;;;16.10;50.20;;;;;;5031384;28;20026;-90
2023/06/02 02:11:48;;;;;;;4.82;3.20;;;16.00;50.30;;;;;;5029554;28;20064;-90
2023/06/02 02:14:14;;;;;;;5.35;3.47;;;16.00;50.50;;;;;;5034118;28;20087;-90
2023/06/02 02:16:45;;;;;;;5.05;2.90;;;15.90;50.60;;;;;;5033634;28;20033;-90
2023/06/02 02:19:16;;;;;;;5.60;3.60;;;15.90;50.50;;;;;;5033357;28;20124;-90
2023/06/02 02:21:42;;;;;;;4.32;3.20;;;15.90;50.70;;;;;;5034152;28;20100;-90
2023/06/02 02:24:08;;;;;;;5.00;3.28;;;15.80;50.70;;;;;;5017710;28;20040;-90
2023/06/02 02:26:35;;;;;;;6.57;3.25;;;15.80;50.60;;;;;;5025143;28;20038;-90
2023/06/02 02:29:01;;;;;;;6.57;3.65;;;15.70;50.50;;;;;;5031174;28;20095;-90
2023/06/02 02:31:27;;;;;;;5.00;4.07;;;15.70;50.60;;;;;;5018381;28;20033;-91
2023/06/02 02:33:53;;;;;;;8.02;3.70;;;15.60;50.70;;;;;;5034507;28;20039;-90
2023/06/02 02:36:19;;;;;;;6.53;3.92;;;15.60;50.80;;;;;;5018599;28;20384;-91
2023/06/02 02:38:45;;;;;;;7.60;3.28;;;15.60;50.80;;;;;;5019290;28;20029;-90
2023/06/02 02:41:11;;;;;;;4.43;3.45;;;15.50;50.90;;;;;;5019205;28;20389;-90
2023/06/02 02:43:36;;;;;;;6.60;3.80;;;15.50;51.00;;;;;;5042091;28;20034;-93
2023/06/02 02:46:02;;;;;;;5.50;3.72;;;15.50;51.20;;;;;;5039162;28;20013;-92
2023/06/02 02:48:28;;;;;;;6.18;3.50;;;15.50;51.40;;;;;;5049568;28;20034;-89
2023/06/02 02:50:54;;;;;;;8.07;3.47;;;15.50;51.40;;;;;;5041790;28;20056;-91
2023/06/02 02:53:20;;;;;;;4.93;3.40;;;15.40;51.30;;;;;;5042380;28;20030;-90
2023/06/02 02:55:45;;;;;;;6.63;3.25;;;15.40;51.40;;;;;;5022828;28;20112;-90
2023/06/02 02:58:12;;;;;;;7.03;3.47;;;15.40;51.50;;;;;;5037566;28;20554;-89
2023/06/02 03:00:39;;;;;;;4.85;3.30;;;15.40;51.60;;;;;;5016049;28;20385;-90
2023/06/02 03:03:05;;;;;;;8.95;3.58;;;15.30;51.50;;;;;;5036757;28;20033;-91
2023/06/02 03:05:34;;;;;;;6.10;3.67;;;15.30;51.60;;;;;;5029280;28;20516;-90
2023/06/02 03:08:01;;;;;;;5.50;3.55;;;15.30;51.70;;;;;;5013845;28;20117;-90
2023/06/02 03:10:26;;;;;;;5.57;3.83;;;15.30;51.70;;;;;;5026293;28;20033;-90
2023/06/02 03:12:52;;;;;;;7.18;3.92;;;15.20;51.70;;;;;;5025268;28;20079;-90
2023/06/02 03:15:18;;;;;;;7.60;3.50;;;15.30;51.70;;;;;;5033037;28;20053;-90
2023/06/02 03:17:45;;;;;;;7.38;3.30;;;15.20;51.70;;;;;;5032894;28;20044;-90
2023/06/02 03:20:11;;;;;;;4.93;3.47;;;15.20;51.90;;;;;;5055120;28;20056;-91
2023/06/02 03:22:37;;;;;;;5.80;3.67;;;15.20;52.00;;;;;;5049351;28;20036;-91
2023/06/02 03:25:05;;;;;;;6.90;4.03;;;15.20;52.20;;;;;;5052871;28;20033;-90
2023/06/02 03:27:31;;;;;;;5.68;3.53;;;15.20;52.20;;;;;;5052585;28;20028;-90
2023/06/02 03:29:56;;;;;;;5.60;3.38;;;15.20;52.10;;;;;;5050196;28;20029;-90
2023/06/02 03:32:22;;;;;;;6.68;3.30;;;15.20;52.20;;;;;;5052515;28;20100;-89
2023/06/02 03:34:48;;;;;;;6.22;3.60;;;15.20;52.20;;;;;;5042153;28;20028;-90
2023/06/02 03:37:14;;;;;;;5.65;3.30;;;15.10;52.20;;;;;;5040657;28;20106;-91
2023/06/02 03:39:40;;;;;;;4.57;3.40;;;15.10;52.10;;;;;;5040581;28;20464;-90
2023/06/02 03:42:06;;;;;;;6.70;3.50;;;15.10;52.20;;;;;;5033438;28;20460;-91
2023/06/02 03:44:31;;;;;;;6.55;3.42;;;15.10;52.20;;;;;;5038885;28;20472;-90
2023/06/02 03:46:57;;;;;;;7.00;3.42;;;15.10;52.20;;;;;;5033928;28;20112;-90
2023/06/02 03:49:27;;;;;;;14.48;4.22;;;14.90;52.20;;;;;;5040006;28;20029;-90
2023/06/02 03:51:53;;;;;;;6.68;3.85;;;15.00;52.40;;;;;;5037951;28;20041;-90
2023/06/02 03:54:19;;;;;;;7.00;4.10;;;15.00;52.40;;;;;;5055030;28;20033;-90
2023/06/02 03:56:44;;;;;;;5.95;3.28;;;15.00;52.40;;;;;;5039116;28;20044;-90
2023/06/02 03:59:10;;;;;;;4.90;3.50;;;14.90;52.30;;;;;;5038262;28;20487;-89
2023/06/02 04:01:36;;;;;;;7.60;3.88;;;15.00;52.40;;;;;;5039012;28;20033;-90
2023/06/02 04:04:02;;;;;;;11.02;3.50;;;14.90;52.50;;;;;;5039436;28;20029;-90
2023/06/02 04:06:28;;;;;;;11.13;4.13;;;15.00;52.60;;;;;;5043769;28;20461;-90
2023/06/02 04:08:54;;;;;;;9.23;3.72;;;15.00;52.80;;;;;;5039489;28;20040;-91
2023/06/02 04:11:22;;;;;;;16.95;4.50;;;15.00;52.80;;;;;;5037938;28;20029;-91
2023/06/02 04:13:49;;;;;;;6.88;3.58;;;15.10;53.00;;;;;;5038503;28;20041;-91
2023/06/02 04:16:15;;;;;;;10.38;3.70;;;15.10;52.90;;;;;;5035228;28;20034;-90
2023/06/02 04:18:44;;;;;;;6.35;3.80;;;15.10;53.00;;;;;;5035445;28;20698;-91
2023/06/02 04:21:09;;;;;;;9.93;4.15;;;15.20;53.10;;;;;;5037476;28;20084;-90
2023/06/02 04:23:35;;;;;;;8.63;3.97;;;15.20;52.90;;;;;;5038522;28;20033;-90
2023/06/02 04:26:01;;;;;;;6.43;3.67;;;15.30;52.90;;;;;;5039184;28;20036;-91
2023/06/02 04:28:27;;;;;;;15.13;4.47;;;15.30;52.80;;;;;;5033971;28;20025;-90
2023/06/02 04:30:54;;;;;;;7.78;3.92;;;15.40;52.80;;;;;;5037498;28;20516;-90
2023/06/02 04:33:20;;;;;;;6.60;4.10;;;15.40;52.90;;;;;;5038004;28;20040;-91
2023/06/02 04:35:46;;;;;;;7.95;3.92;;;15.50;52.90;;;;;;5029449;28;20032;-90
2023/06/02 04:38:12;;;;;;;7.60;3.60;;;15.50;52.70;;;;;;5037621;28;20044;-90
2023/06/02 04:40:39;;;;;;;8.55;4.03;;;15.50;52.60;;;;;;5038018;28;20037;-88
2023/06/02 04:43:05;;;;;;;7.35;3.80;;;15.60;52.70;;;;;;5038098;28;20044;-91
2023/06/02 04:45:31;;;;;;;7.63;4.15;;;15.70;52.70;;;;;;5030417;28;20036;-92
2023/06/02 04:47:57;;;;;;;8.85;4.28;;;15.80;52.80;;;;;;5031143;28;20389;-91
2023/06/02 04:50:23;;;;;;;11.35;4.65;;;15.80;52.50;;;;;;5029488;28;20032;-91
2023/06/02 04:52:49;;;;;;;13.73;4.57;;;15.80;52.60;;;;;;5037559;28;20029;-90
2023/06/02 04:55:15;;;;;;;12.63;4.47;;;15.90;52.50;;;;;;5037798;28;20533;-91
2023/06/02 04:57:41;;;;;;;10.68;4.28;;;15.90;52.20;;;;;;5036926;28;20468;-91
2023/06/02 05:00:08;;;;;;;8.95;4.53;;;16.00;52.20;;;;;;5036924;28;20124;-91
2023/06/02 05:02:37;;;;;;;9.13;3.72;;;16.10;52.20;;;;;;5054074;28;20040;-91
2023/06/02 05:05:05;;;;;;;7.65;4.20;;;16.10;52.10;;;;;;5032064;28;20029;-90
2023/06/02 05:07:31;;;;;;;10.57;4.25;;;16.20;52.10;;;;;;5035893;28;20056;-91
2023/06/02 05:09:57;;;;;;;9.57;4.45;;;16.30;52.20;;;;;;5023968;28;20033;-90
2023/06/02 05:12:25;;;;;;;11.90;4.53;;;16.40;52.20;;;;;;5029106;28;20044;-92
2023/06/02 05:14:51;;;;;;;8.60;4.97;;;16.50;52.00;;;;;;5035082;28;20026;-91
2023/06/02 05:17:22;;;;;;;10.50;4.75;;;16.60;52.00;;;;;;5028973;28;20032;-91
2023/06/02 05:19:49;;;;;;;9.52;4.55;;;16.70;52.10;;;;;;5024117;28;20191;-91
2023/06/02 05:22:14;;;;;;;13.32;3.92;;;16.80;51.90;;;;;;5017184;28;20515;-91
2023/06/02 05:24:40;;;;;;;11.77;5.00;;;16.90;51.80;;;;;;5016942;28;20061;-89
2023/06/02 05:27:07;;;;;;;9.30;4.80;;;17.10;51.70;;;;;;5018282;28;20029;-91
2023/06/02 05:29:33;;;;;;;7.25;4.53;;;17.20;51.60;;;;;;5011394;28;20068;-89
2023/06/02 05:31:58;;;;;;;6.85;4.65;;;17.30;52.00;;;;;;5017841;28;20542;-89
2023/06/02 05:34:24;;;;;;;8.23;4.72;;;17.40;51.40;;;;;;5016822;28;20109;-89
2023/06/02 05:36:50;;;;;;;10.85;4.53;;;17.50;51.30;;;;;;5014961;28;20036;-89
2023/06/02 05:39:15;;;;;;;7.90;4.32;;;17.60;51.20;;;;;;5007375;28;20152;-91
2023/06/02 05:41:42;;;;;;;8.48;4.97;;;17.70;51.10;;;;;;5031132;28;20117;-90
2023/06/02 05:44:08;;;;;;;16.67;5.35;;;17.80;51.00;;;;;;5017160;28;20362;-90
2023/06/02 05:46:33;;;;;;;15.00;5.38;;;17.90;51.10;;;;;;5016735;28;20044;-90
2023/06/02 05:48:59;;;;;;;14.52;5.13;;;18.00;50.90;;;;;;5016903;28;20061;-90
2023/06/02 05:51:25;;;;;;;13.88;5.15;;;18.10;50.70;;;;;;5016491;28;20092;-90
2023/06/02 05:53:51;;;;;;;12.18;5.13;;;18.30;50.70;;;;;;5012307;28;20038;-90
2023/06/02 05:56:17;;;;;;;14.65;5.25;;;18.30;50.50;;;;;;5015816;28;20037;-91
2023/06/02 05:58:42;;;;;;;7.85;5.07;;;18.40;50.40;;;;;;5017150;28;20029;-90
2023/06/02 06:01:11;;;;;;;11.80;5.00;;;18.50;50.30;;;;;;5016682;28;20044;-89
2023/06/02 06:03:36;;;;;;;11.48;5.13;;;18.50;50.40;;;;;;5016797;28;20432;-91
2023/06/02 06:06:03;;;;;;;20.50;5.45;;;18.60;50.20;;;;;;5013608;28;20026;-90
2023/06/02 06:08:29;;;;;;;12.93;5.43;;;18.80;50.90;;;;;;5032820;28;20026;-90
2023/06/02 06:10:55;;;;;;;10.60;5.15;;;18.80;50.30;;;;;;5016515;28;20041;-90
2023/06/02 06:13:21;;;;;;;10.90;5.35;;;19.00;50.10;;;;;;5018344;28;20030;-91
2023/06/02 06:15:47;;;;;;;9.80;5.35;;;19.10;50.00;;;;;;5017523;28;20030;-91
2023/06/02 06:18:14;;;;;;;10.98;5.28;;;19.10;49.80;;;;;;5017782;28;20039;-91
2023/06/02 06:20:43;;;;;;;12.70;5.00;;;19.20;49.70;;;;;;5017744;28;20103;-91
2023/06/02 06:23:10;;;;;;;17.83;5.70;;;19.30;49.80;;;;;;5021604;28;20029;-91
2023/06/02 06:25:36;;;;;;;12.57;5.38;;;19.50;49.80;;;;;;5024212;28;20030;-91
2023/06/02 06:28:02;;;;;;;8.40;4.95;;;19.60;49.60;;;;;;5022746;28;20029;-91
2023/06/02 06:30:28;;;;;;;12.10;5.10;;;19.70;49.60;;;;;;5022241;28;20064;-91
2023/06/02 06:32:53;;;;;;;11.90;5.53;;;19.80;49.50;;;;;;5023261;28;20101;-92
2023/06/02 06:35:20;;;;;;;10.25;5.35;;;19.90;49.30;;;;;;5023212;28;20037;-91
2023/06/02 06:37:45;;;;;;;16.80;5.88;;;20.00;49.30;;;;;;5022647;28;20029;-91
2023/06/02 06:40:11;;;;;;;12.02;5.38;;;20.20;49.10;;;;;;5034439;28;20087;-91
2023/06/02 06:42:37;;;;;;;12.20;4.60;;;20.20;48.90;;;;;;5060143;28;20077;-92
2023/06/02 06:45:03;;;;;;;12.18;5.00;;;20.40;48.80;;;;;;5039334;28;20009;-91
2023/06/02 06:47:28;;;;;;;8.10;5.28;;;20.50;48.50;;;;;;5041250;28;20045;-93
2023/06/02 06:49:54;;;;;;;9.35;5.30;;;20.60;48.30;;;;;;5032088;28;20392;-92
2023/06/02 06:52:20;;;;;;;11.95;4.93;;;20.70;48.30;;;;;;5034515;28;20041;-90
2023/06/02 06:54:46;;;;;;;11.10;5.15;;;20.80;48.10;;;;;;5020297;28;20034;-90
2023/06/02 06:57:12;;;;;;;8.23;4.57;;;20.90;48.10;;;;;;5037800;28;20094;-91
2023/06/02 06:59:42;;;;;;;14.13;5.88;;;21.00;48.30;;;;;;5017741;28;20025;-91
2023/06/02 07:02:08;;;;;;;13.15;5.28;;;21.10;48.20;;;;;;5019513;28;20036;-92
2023/06/02 07:04:34;;;;;;;10.57;5.07;;;21.30;47.90;;;;;;5023799;28;20029;-91
2023/06/02 07:06:59;;;;;;;8.50;4.60;;;21.40;47.70;;;;;;5012088;28;20061;-91
2023/06/02 07:09:25;;;;;;;8.52;4.88;;;21.50;47.50;;;;;;5018616;28;20388;-92
2023/06/02 07:11:51;;;;;;;12.48;5.20;;;21.60;47.40;;;;;;5020918;28;20038;-92
2023/06/02 07:20:03;;;;;;;9.88;5.47;;;21.80;47.00;;;;;;5035663;28;20037;-61
2023/06/02 07:22:29;;;;;;;15.30;5.13;;;21.90;46.90;;;;;;5038429;28;20026;-62
2023/06/02 07:24:54;;;;;;;15.93;5.13;;;22.10;46.80;;;;;;5031145;28;20033;-62
2023/06/02 07:27:21;;;;;;;10.30;5.15;;;22.20;46.50;;;;;;5032475;28;20017;-61
2023/06/02 07:29:47;;;;;;;14.10;5.05;;;22.30;46.20;;;;;;5027573;28;20036;-63
2023/06/02 07:32:12;;;;;;;14.75;4.88;;;22.30;46.30;;;;;;5035034;28;20081;-62
2023/06/02 07:34:40;;;;;;;9.70;4.57;;;22.50;46.20;;;;;;5035192;28;20112;-63
2023/06/02 07:37:05;;;;;;;16.40;5.55;;;22.60;46.00;;;;;;5020820;28;20033;-64
2023/06/02 07:39:31;;;;;;;15.02;5.35;;;22.70;45.90;;;;;;5035147;28;20038;-63
2023/06/02 07:41:57;;;;;;;10.65;5.00;;;22.80;45.60;;;;;;5045874;28;20021;-63
2023/06/02 07:44:22;;;;;;;7.18;4.35;;;22.90;46.10;;;;;;5032164;28;20022;-63
2023/06/02 07:46:48;;;;;;;10.45;4.53;;;23.00;45.30;;;;;;5043478;28;20053;-62
2023/06/02 07:49:14;;;;;;;12.43;5.50;;;23.10;45.40;;;;;;5030816;28;20049;-62
2023/06/02 07:51:40;;;;;;;10.65;5.30;;;23.20;45.20;;;;;;5051062;28;20033;-62
2023/06/02 07:54:06;;;;;;;10.85;4.63;;;23.20;44.90;;;;;;5031850;28;20030;-62
2023/06/02 07:56:31;;;;;;;15.05;5.38;;;23.40;44.90;;;;;;5035852;28;20025;-63
2023/06/02 07:58:57;;;;;;;13.23;4.43;;;23.50;44.70;;;;;;5036094;28;20498;-64
2023/06/02 08:01:22;;;;;;;11.23;4.70;;;23.60;45.10;;;;;;5030201;28;20029;-63
2023/06/02 08:03:49;;;;;;;9.30;4.22;;;23.80;44.40;;;;;;5044880;28;20037;-62
2023/06/02 08:06:15;;;;;;;10.95;4.57;;;23.90;44.00;;;;;;5051218;28;20024;-62
2023/06/02 08:08:41;;;;;;;14.57;4.75;;;24.00;43.90;;;;;;5041618;28;20044;-62
2023/06/02 08:11:06;;;;;;;10.73;5.00;;;24.10;44.00;;;;;;5046783;28;20033;-62
2023/06/02 08:13:32;;;;;;;12.93;4.55;;;24.20;43.80;;;;;;5050992;28;20630;-63
2023/06/02 08:15:59;;;;;;;8.15;5.10;;;24.40;43.60;;;;;;5026857;28;20033;-64
2023/06/02 08:18:25;;;;;;;9.02;4.70;;;24.50;43.00;;;;;;5031891;28;20427;-63
2023/06/02 08:20:51;;;;;;;11.43;4.63;;;24.70;42.50;;;;;;5022418;28;20037;-63
2023/06/02 08:23:17;;;;;;;13.20;4.53;;;24.70;42.30;;;;;;5022086;28;20025;-62
2023/06/02 08:25:43;;;;;;;4.35;3.67;;;24.90;42.40;;;;;;5020181;28;20041;-63
2023/06/02 08:28:09;;;;;;;12.13;4.80;;;25.00;40.70;;;;;;4930895;28;20468;-63
2023/06/02 08:30:36;;;;;;;6.18;4.20;;;25.00;40.70;;;;;;5013803;28;20038;-63
2023/06/02 08:33:03;;;;;;;5.45;3.95;;;25.10;40.50;;;;;;5022365;28;20018;-63
2023/06/02 08:35:38;;;;;;;6.35;3.95;;;25.20;40.80;;;;;;5022365;28;20026;-63
2023/06/02 08:38:07;;;;;;;5.55;3.67;;;25.20;40.20;;;;;;5003867;28;20038;-62
2023/06/02 08:40:39;;;;;;;5.35;3.60;;;25.30;40.80;;;;;;5021160;28;20040;-63
2023/06/02 08:43:08;;;;;;;13.27;4.72;;;25.40;39.60;;;;;;5007237;28;20030;-62
2023/06/02 08:45:34;;;;;;;6.43;4.00;;;25.50;40.00;;;;;;5022798;28;20105;-63
2023/06/02 08:48:05;;;;;;;6.90;4.22;;;25.60;40.30;;;;;;5022603;28;20026;-64
2023/06/02 08:50:34;;;;;;;7.78;4.22;;;25.70;39.80;;;;;;5016170;28;20037;-63
2023/06/02 08:53:03;;;;;;;6.00;4.13;;;25.80;39.00;;;;;;5021587;28;20033;-63
2023/06/02 08:55:29;;;;;;;9.23;4.05;;;25.90;38.70;;;;;;5008073;28;20049;-63
2023/06/02 08:57:55;;;;;;;5.82;3.63;;;26.00;38.70;;;;;;5021723;28;20033;-63
2023/06/02 09:00:21;;;;;;;4.70;3.85;;;26.00;38.90;;;;;;5022818;28;20180;-63
2023/06/02 09:02:48;;;;;;;7.10;4.13;;;26.10;38.40;;;;;;5020700;28;20034;-62
2023/06/02 09:05:16;;;;;;;6.78;4.32;;;26.20;38.00;;;;;;5013115;28;20030;-62
2023/06/02 09:07:45;;;;;;;6.30;4.03;;;26.30;38.10;;;;;;5019035;28;20080;-62
2023/06/02 09:10:31;;;;;;;9.25;4.00;;;26.30;37.60;;;;;;5018805;28;20064;-63
2023/06/02 09:12:56;;;;;;;9.95;4.35;;;26.40;36.70;;;;;;5012311;28;20038;-63
2023/06/02 09:15:24;;;;;;;5.47;3.85;;;26.40;37.30;;;;;;5021585;28;20090;-63
2023/06/02 09:17:50;;;;;;;7.38;4.13;;;26.50;36.80;;;;;;5020082;28;20029;-62
2023/06/02 09:20:16;;;;;;;5.90;4.40;;;26.50;36.50;;;;;;5018967;28;20361;-63
2023/06/02 09:22:53;;;;;;;6.03;3.90;;;26.60;36.10;;;;;;5019527;28;20023;-63
2023/06/02 09:25:24;;;;;;;17.48;4.05;;;26.60;35.50;;;;;;5017125;28;21172;-63
2023/06/02 09:27:54;;;;;;;6.72;3.97;;;26.70;36.70;;;;;;5013152;28;20034;-62
2023/06/02 09:30:20;;;;;;;5.88;4.07;;;26.70;37.00;;;;;;5019703;28;20038;-62
2023/06/02 09:33:01;;;;;;;5.85;3.88;;;26.80;36.80;;;;;;5020171;28;20038;-64
2023/06/02 09:35:42;;;;;;;10.98;4.45;;;26.90;36.20;;;;;;5017906;28;20103;-63
2023/06/02 09:38:17;;;;;;;7.18;3.78;;;26.90;35.10;;;;;;5025149;28;20042;-62
2023/06/02 09:40:44;;;;;;;5.18;3.78;;;26.90;35.10;;;;;;5022608;28;20073;-63
2023/06/02 09:43:12;;;;;;;6.53;3.83;;;26.90;36.20;;;;;;5017439;28;20036;-63
2023/06/02 09:46:04;;;;;;;4.53;3.67;;;26.90;35.80;;;;;;5017879;28;20550;-63
2023/06/02 09:48:30;;;;;;;5.35;4.05;;;27.00;35.00;;;;;;5010116;28;20031;-64
2023/06/02 09:50:56;;;;;;;11.20;3.50;;;27.00;35.30;;;;;;5005117;28;20042;-63
2023/06/02 09:53:22;;;;;;;5.40;4.03;;;27.10;35.40;;;;;;5023462;28;20042;-63
2023/06/02 09:55:50;;;;;;;11.57;4.00;;;27.20;35.30;;;;;;5013218;28;20049;-62
2023/06/02 09:58:16;;;;;;;9.80;3.90;;;27.30;35.60;;;;;;5014484;28;20046;-63
2023/06/02 10:00:42;;;;;;;4.85;3.80;;;27.30;35.30;;;;;;5021314;28;20081;-63
2023/06/02 10:03:07;;;;;;;11.38;5.45;;;27.40;35.00;;;;;;5013867;28;20088;-63
2023/06/02 10:05:38;;;;;;;7.03;4.10;;;27.50;34.90;;;;;;5013803;28;20026;-63
2023/06/02 10:08:16;;;;;;;6.20;3.90;;;27.60;34.10;;;;;;5025200;28;20044;-63
2023/06/02 10:11:11;;;;;;;6.22;3.75;;;27.60;34.60;;;;;;5020547;28;20038;-62
2023/06/02 10:13:51;;;;;;;5.90;3.83;;;27.70;34.00;;;;;;5015655;28;20018;-65
2023/06/02 10:16:39;;;;;;;5.97;3.75;;;27.70;34.50;;;;;;5017688;28;20377;-62
2023/06/02 10:19:07;;;;;;;8.25;3.60;;;27.70;34.50;;;;;;5024020;28;20073;-63
2023/06/02 10:21:55;;;;;;;7.00;4.00;;;27.70;35.10;;;;;;5020834;28;20017;-62
2023/06/02 10:24:39;;;;;;;6.25;4.00;;;27.80;34.10;;;;;;5016058;28;20026;-64
2023/06/02 10:27:05;;;;;;;7.00;3.83;;;27.80;33.20;;;;;;5008219;28;20030;-63
2023/06/02 10:29:33;;;;;;;6.53;3.83;;;27.80;33.40;;;;;;5015891;28;20136;-63
2023/06/02 10:32:00;;;;;;;6.18;3.60;;;27.80;34.20;;;;;;5020842;28;20037;-63
2023/06/02 10:34:34;;;;;;;6.55;3.95;;;27.80;33.70;;;;;;5013571;28;20110;-63
2023/06/02 10:37:00;;;;;;;5.38;3.70;;;27.90;34.20;;;;;;5020710;28;20036;-63
2023/06/02 10:39:53;;;;;;;7.28;3.80;;;27.90;33.60;;;;;;5021564;28;20030;-63
2023/06/02 10:42:20;;;;;;;5.22;3.80;;;28.00;33.00;;;;;;5015690;28;20038;-63
2023/06/02 10:44:51;;;;;;;8.10;3.88;;;28.00;33.50;;;;;;5016591;28;20030;-63
2023/06/02 10:47:17;;;;;;;4.55;3.72;;;28.00;33.50;;;;;;5017146;28;21275;-64
2023/06/02 10:50:03;;;;;;;6.82;4.00;;;28.00;33.20;;;;;;5020800;28;20030;-63
2023/06/02 10:52:30;;;;;;;6.38;3.92;;;28.00;32.80;;;;;;5020909;28;20042;-62
2023/06/02 10:55:08;;;;;;;6.28;3.95;;;28.10;33.30;;;;;;5017955;28;20038;-63
2023/06/02 10:57:57;;;;;;;4.03;3.60;;;28.10;32.60;;;;;;5015645;28;20030;-63
2023/06/02 11:00:44;;;;;;;10.02;3.65;;;28.10;32.80;;;;;;5001664;28;20026;-63
2023/06/02 11:03:15;;;;;;;11.73;3.90;;;28.10;33.80;;;;;;5021360;28;20084;-63
2023/06/02 11:05:42;;;;;;;4.88;3.45;;;28.10;33.00;;;;;;5006237;28;20029;-63
2023/06/02 11:08:11;;;;;;;4.82;3.40;;;28.20;33.50;;;;;;5020441;28;20049;-64
2023/06/02 11:10:56;;;;;;;9.52;3.90;;;28.30;33.20;;;;;;5022723;28;20061;-64
2023/06/02 11:13:26;;;;;;;9.02;3.70;;;28.30;31.60;;;;;;5024684;28;20072;-63
2023/06/02 11:15:56;;;;;;;4.03;3.30;;;28.30;33.50;;;;;;5025524;28;20034;-65
2023/06/02 11:18:22;;;;;;;8.10;3.63;;;28.40;33.40;;;;;;5024095;28;20084;-63
2023/06/02 11:20:53;;;;;;;5.93;3.47;;;28.40;33.40;;;;;;5044931;28;20033;-64
2023/06/02 11:23:19;;;;;;;7.78;3.55;;;28.50;33.80;;;;;;5038217;28;20029;-65
2023/06/02 11:25:49;;;;;;;7.38;3.55;;;28.60;33.50;;;;;;5042187;28;20033;-65
2023/06/02 11:28:22;;;;;;;7.40;3.83;;;28.70;32.60;;;;;;5035315;28;20033;-64
2023/06/02 11:31:05;;;;;;;4.93;3.70;;;28.70;32.80;;;;;;5046115;28;20045;-65
2023/06/02 11:33:34;;;;;;;5.53;3.35;;;28.80;32.30;;;;;;5041994;28;20119;-65
2023/06/02 11:36:01;;;;;;;6.65;4.15;;;28.80;32.60;;;;;;5040671;28;20439;-64
2023/06/02 11:38:31;;;;;;;7.18;3.30;;;28.90;33.10;;;;;;5048114;28;20034;-65
2023/06/02 11:41:08;;;;;;;5.45;3.28;;;29.00;33.60;;;;;;5043960;28;20079;-66
2023/06/02 11:43:34;;;;;;;9.27;3.20;;;29.10;32.20;;;;;;5041430;28;20022;-65
2023/06/02 11:46:10;;;;;;;8.05;3.47;;;29.30;32.30;;;;;;5043119;28;20033;-64
2023/06/02 11:48:40;;;;;;;4.80;3.25;;;29.40;30.90;;;;;;5041390;28;20113;-64
2023/06/02 11:51:07;;;;;;;5.32;3.40;;;29.50;31.60;;;;;;5044668;28;20034;-64
2023/06/02 11:53:34;;;;;;;3.80;3.40;;;29.60;31.80;;;;;;5044241;28;20021;-64
2023/06/02 11:56:00;;;;;;;5.65;3.38;;;29.60;30.80;;;;;;5032092;28;20487;-63
2023/06/02 11:58:28;;;;;;;7.95;3.53;;;29.70;31.60;;;;;;5044275;28;20028;-65
2023/06/02 12:01:07;;;;;;;5.65;3.40;;;29.70;31.70;;;;;;5042779;28;20049;-62
2023/06/02 12:03:34;;;;;;;7.50;3.58;;;29.80;30.60;;;;;;5038922;28;20025;-63
2023/06/02 12:06:14;;;;;;;9.30;3.47;;;29.80;30.60;;;;;;5040742;28;20029;-63
2023/06/02 12:08:40;;;;;;;6.68;3.45;;;29.70;30.20;;;;;;5041759;28;20105;-63
2023/06/02 12:11:32;;;;;;;9.48;3.42;;;29.70;31.70;;;;;;5037091;28;20041;-62
2023/06/02 12:13:57;;;;;;;5.25;3.30;;;29.70;30.30;;;;;;5040468;28;20045;-63
2023/06/02 12:16:26;;;;;;;5.65;3.20;;;29.80;30.70;;;;;;5041587;28;20489;-64
2023/06/02 12:19:11;;;;;;;4.70;2.95;;;29.80;30.90;;;;;;5035467;28;20041;-63
2023/06/02 12:21:39;;;;;;;9.15;3.40;;;29.90;31.40;;;;;;5030925;28;20029;-63
2023/06/02 12:24:05;;;;;;;5.30;3.00;;;30.00;30.60;;;;;;5040205;28;20428;-63
2023/06/02 12:26:44;;;;;;;4.53;3.25;;;30.10;31.10;;;;;;5025132;28;20026;-62
2023/06/02 12:29:11;;;;;;;5.78;3.30;;;30.20;29.40;;;;;;5042423;28;20025;-64
2023/06/02 12:31:38;;;;;;;6.53;3.45;;;30.30;29.80;;;;;;5043767;28;20100;-63
2023/06/02 12:34:06;;;;;;;4.97;3.10;;;30.40;30.30;;;;;;5025277;28;20056;-63
2023/06/02 12:36:32;;;;;;;5.78;3.60;;;30.40;29.70;;;;;;5033269;28;20527;-64
2023/06/02 12:39:00;;;;;;;6.32;2.88;;;30.40;29.30;;;;;;5039931;28;20441;-63
2023/06/02 12:41:26;;;;;;;7.82;3.15;;;30.30;29.10;;;;;;5041659;28;20026;-63
2023/06/02 12:43:52;;;;;;;4.13;3.00;;;30.30;29.50;;;;;;5042153;28;20037;-63
2023/06/02 12:46:17;;;;;;;5.82;3.20;;;30.20;28.90;;;;;;5040781;28;20036;-64
2023/06/02 12:48:43;;;;;;;7.93;3.15;;;30.00;29.00;;;;;;5036711;28;20033;-63
2023/06/02 12:51:09;;;;;;;3.25;2.88;;;29.90;29.10;;;;;;5044855;28;20112;-63
2023/06/02 12:53:35;;;;;;;10.15;2.75;;;29.90;29.20;;;;;;5038839;28;20323;-63
2023/06/02 12:56:03;;;;;;;3.15;2.65;;;29.90;29.20;;;;;;5032042;28;20030;-63